AV - LB | Pilotos de la V.A




 METAR AND TAF INFORMATION
METAR FOR RJSR
ADDS - METARS form results

(0108 UTC 20 January 2021)
Data provider http://aviationweather.gov/metar/data/
 
METAR text: RJSR 200100Z 26011KT 2000 R11/1200VP2000D -SHSN FEW002 SCT005 BKN010 M03/M05 Q1029
Conditions at: RJSR (ODATE-NOSHIRO , JP) observed 0100 UTC 20 January 2021
Temperature: -3.0°C (27°F)
Dewpoint: -5.0°C (23°F) [RH = 86%]
Pressure (altimeter): 30.38 inches Hg (1029.0 mb)
Winds: from the W (260 degrees) at 13 MPH (11 knots; 5.7 m/s)
Visibility: 1.24 miles (2.00 km)
Ceiling: 1000 feet AGL
Clouds: few clouds at 200 feet AGL
scattered clouds at 500 feet AGL
broken clouds at 1000 feet AGL
Weather: -SHSN  (light snow showers)

METAR text: RJSR 200038Z 25010KT 4000 R11/0900VP2000U -SHSN FEW003 SCT005 BKN010 M04/M05 Q1029 RMK 1ST003 3ST005 6ST010 A3039
Conditions at: RJSR (ODATE-NOSHIRO , JP) observed 0038 UTC 20 January 2021
Temperature: -4.0°C (25°F)
Dewpoint: -5.0°C (23°F) [RH = 93%]
Pressure (altimeter): 30.38 inches Hg (1029.0 mb)
Winds: from the WSW (250 degrees) at 12 MPH (10 knots; 5.1 m/s)
Visibility: 2.49 miles (4.01 km)
Ceiling: 1000 feet AGL
Clouds: few clouds at 300 feet AGL
scattered clouds at 500 feet AGL
broken clouds at 1000 feet AGL
Weather: -SHSN  (light snow showers)

METAR text: RJSR 200026Z 26011KT 220V300 0800 R11/0650VP2000D SHSN FEW001 SCT003 BKN010 M04/M05 Q1029 RMK 1ST001 3ST003 6ST010 A3039
Conditions at: RJSR (ODATE-NOSHIRO , JP) observed 0026 UTC 20 January 2021
Temperature: -4.0°C (25°F)
Dewpoint: -5.0°C (23°F) [RH = 93%]
Pressure (altimeter): 30.38 inches Hg (1029.0 mb)
Winds: from the W (260 degrees) at 13 MPH (11 knots; 5.7 m/s)
Visibility: 0.50 miles (0.80 km)
Ceiling: 1000 feet AGL
Clouds: few clouds at 100 feet AGL
scattered clouds at 300 feet AGL
broken clouds at 1000 feet AGL
Weather: SHSN  (snow showers)

 AIRPORT MAP

 RUNWAY INFORMATION
Runway 11 Runway length 6562 ft Runway width 148 ft
Runway elevation 259 ft Runway displaced threshold 0 ft Runway heading 100
Runway 29 Runway length 6562 ft Runway width 148 ft
Runway elevation 292 ft Runway displaced threshold 0 ft Runway heading 280

 AIRPORT FREQUENCIES
Type RDO Name RDO Frequency 118.75 MHZ

 AIRPORT NEAR NAVIGATION AIDS
Type VOR-DME Name Odate Noshiro Frequency 114750 KHZ